sensor_id;sensor_type;location;lat;lon;timestamp;temperature;humidity
17715;DHT22;8977;50.902;4.314;2022-07-10T00:00:25;21.20;99.10
17715;DHT22;8977;50.902;4.314;2022-07-10T00:02:52;21.10;99.10
17715;DHT22;8977;50.902;4.314;2022-07-10T00:05:19;21.10;99.10
17715;DHT22;8977;50.902;4.314;2022-07-10T00:07:46;21.10;99.00
17715;DHT22;8977;50.902;4.314;2022-07-10T00:10:14;21.10;99.10
17715;DHT22;8977;50.902;4.314;2022-07-10T00:12:40;21.10;99.10
17715;DHT22;8977;50.902;4.314;2022-07-10T00:15:10;21.10;99.10
17715;DHT22;8977;50.902;4.314;2022-07-10T00:17:37;21.00;99.10
17715;DHT22;8977;50.902;4.314;2022-07-10T00:20:06;21.00;99.20
17715;DHT22;8977;50.902;4.314;2022-07-10T00:22:33;21.00;99.20
17715;DHT22;8977;50.902;4.314;2022-07-10T00:25:01;20.90;99.60
17715;DHT22;8977;50.902;4.314;2022-07-10T00:27:27;20.90;99.60
17715;DHT22;8977;50.902;4.314;2022-07-10T00:29:54;20.90;99.30
17715;DHT22;8977;50.902;4.314;2022-07-10T00:32:23;20.80;99.40
17715;DHT22;8977;50.902;4.314;2022-07-10T00:34:50;20.90;99.40
17715;DHT22;8977;50.902;4.314;2022-07-10T00:37:17;20.90;99.30
17715;DHT22;8977;50.902;4.314;2022-07-10T00:39:46;20.90;99.30
17715;DHT22;8977;50.902;4.314;2022-07-10T00:42:15;20.80;99.30
17715;DHT22;8977;50.902;4.314;2022-07-10T00:44:43;20.80;99.20
17715;DHT22;8977;50.902;4.314;2022-07-10T00:47:11;20.80;99.40
17715;DHT22;8977;50.902;4.314;2022-07-10T00:49:40;20.80;99.50
17715;DHT22;8977;50.902;4.314;2022-07-10T00:52:10;20.80;99.50
17715;DHT22;8977;50.902;4.314;2022-07-10T00:54:38;20.70;99.40
17715;DHT22;8977;50.902;4.314;2022-07-10T00:57:07;20.80;99.40
17715;DHT22;8977;50.902;4.314;2022-07-10T00:59:34;20.80;99.40
17715;DHT22;8977;50.902;4.314;2022-07-10T01:02:02;20.70;99.40
17715;DHT22;8977;50.902;4.314;2022-07-10T01:04:29;20.70;99.40
17715;DHT22;8977;50.902;4.314;2022-07-10T01:06:58;20.70;99.40
17715;DHT22;8977;50.902;4.314;2022-07-10T01:09:25;20.70;99.40
17715;DHT22;8977;50.902;4.314;2022-07-10T01:11:52;20.70;99.40
17715;DHT22;8977;50.902;4.314;2022-07-10T01:14:20;20.70;99.40
17715;DHT22;8977;50.902;4.314;2022-07-10T01:16:47;20.60;99.40
17715;DHT22;8977;50.902;4.314;2022-07-10T01:19:14;20.60;99.30
17715;DHT22;8977;50.902;4.314;2022-07-10T01:21:42;20.60;99.40
17715;DHT22;8977;50.902;4.314;2022-07-10T01:24:10;20.60;99.50
17715;DHT22;8977;50.902;4.314;2022-07-10T01:26:38;20.60;99.50
17715;DHT22;8977;50.902;4.314;2022-07-10T01:29:09;20.60;99.50
17715;DHT22;8977;50.902;4.314;2022-07-10T01:31:36;20.50;99.60
17715;DHT22;8977;50.902;4.314;2022-07-10T01:34:06;20.50;99.60
17715;DHT22;8977;50.902;4.314;2022-07-10T01:36:34;20.50;99.60
17715;DHT22;8977;50.902;4.314;2022-07-10T01:39:02;20.50;99.70
17715;DHT22;8977;50.902;4.314;2022-07-10T01:41:29;20.50;99.70
17715;DHT22;8977;50.902;4.314;2022-07-10T01:43:56;20.50;99.60
17715;DHT22;8977;50.902;4.314;2022-07-10T01:46:23;20.50;99.90
17715;DHT22;8977;50.902;4.314;2022-07-10T01:48:51;20.50;99.60
17715;DHT22;8977;50.902;4.314;2022-07-10T01:51:18;20.40;99.60
17715;DHT22;8977;50.902;4.314;2022-07-10T01:53:45;20.50;99.70
17715;DHT22;8977;50.902;4.314;2022-07-10T01:56:14;20.40;99.70
17715;DHT22;8977;50.902;4.314;2022-07-10T01:58:41;20.50;99.70
17715;DHT22;8977;50.902;4.314;2022-07-10T02:01:09;20.40;99.70
17715;DHT22;8977;50.902;4.314;2022-07-10T02:03:37;20.40;99.80
17715;DHT22;8977;50.902;4.314;2022-07-10T02:06:21;20.30;99.80
17715;DHT22;8977;50.902;4.314;2022-07-10T02:08:48;20.30;99.80
17715;DHT22;8977;50.902;4.314;2022-07-10T02:11:16;20.30;99.80
17715;DHT22;8977;50.902;4.314;2022-07-10T02:13:44;20.30;99.90
17715;DHT22;8977;50.902;4.314;2022-07-10T02:16:11;20.20;99.90
17715;DHT22;8977;50.902;4.314;2022-07-10T02:18:38;20.20;99.90
17715;DHT22;8977;50.902;4.314;2022-07-10T02:21:05;20.20;99.90
17715;DHT22;8977;50.902;4.314;2022-07-10T02:23:33;20.20;99.90
17715;DHT22;8977;50.902;4.314;2022-07-10T02:26:00;20.10;99.90
17715;DHT22;8977;50.902;4.314;2022-07-10T02:28:29;20.20;99.90
17715;DHT22;8977;50.902;4.314;2022-07-10T02:30:56;20.10;99.90
17715;DHT22;8977;50.902;4.314;2022-07-10T02:33:22;20.10;99.90
17715;DHT22;8977;50.902;4.314;2022-07-10T02:35:49;20.10;99.90
17715;DHT22;8977;50.902;4.314;2022-07-10T02:38:16;20.10;99.90
17715;DHT22;8977;50.902;4.314;2022-07-10T02:40:43;20.10;99.90
17715;DHT22;8977;50.902;4.314;2022-07-10T02:43:10;20.10;99.90
17715;DHT22;8977;50.902;4.314;2022-07-10T02:45:39;20.10;99.90
17715;DHT22;8977;50.902;4.314;2022-07-10T02:48:06;20.10;99.90
17715;DHT22;8977;50.902;4.314;2022-07-10T02:50:33;20.00;99.90
17715;DHT22;8977;50.902;4.314;2022-07-10T02:53:00;20.00;99.90
17715;DHT22;8977;50.902;4.314;2022-07-10T02:55:28;20.00;99.90
17715;DHT22;8977;50.902;4.314;2022-07-10T02:57:57;20.00;99.90
17715;DHT22;8977;50.902;4.314;2022-07-10T03:00:24;20.00;99.90
17715;DHT22;8977;50.902;4.314;2022-07-10T03:02:52;20.00;99.90
17715;DHT22;8977;50.902;4.314;2022-07-10T03:05:19;20.10;99.90
17715;DHT22;8977;50.902;4.314;2022-07-10T03:07:46;20.00;99.90
17715;DHT22;8977;50.902;4.314;2022-07-10T03:10:13;20.00;99.90
17715;DHT22;8977;50.902;4.314;2022-07-10T03:12:40;20.00;99.90
17715;DHT22;8977;50.902;4.314;2022-07-10T03:15:07;19.90;99.90
17715;DHT22;8977;50.902;4.314;2022-07-10T03:17:34;20.00;99.90
17715;DHT22;8977;50.902;4.314;2022-07-10T03:20:03;19.90;99.90
17715;DHT22;8977;50.902;4.314;2022-07-10T03:22:30;19.90;99.90
17715;DHT22;8977;50.902;4.314;2022-07-10T03:24:58;19.90;99.90
17715;DHT22;8977;50.902;4.314;2022-07-10T03:27:25;19.90;99.90
17715;DHT22;8977;50.902;4.314;2022-07-10T03:29:52;19.90;99.90
17715;DHT22;8977;50.902;4.314;2022-07-10T03:32:19;19.80;99.90
17715;DHT22;8977;50.902;4.314;2022-07-10T03:34:46;19.80;99.90
17715;DHT22;8977;50.902;4.314;2022-07-10T03:37:14;19.70;99.90
17715;DHT22;8977;50.902;4.314;2022-07-10T03:39:41;19.70;99.90
17715;DHT22;8977;50.902;4.314;2022-07-10T03:42:07;19.70;99.90
17715;DHT22;8977;50.902;4.314;2022-07-10T03:44:34;19.80;99.90
17715;DHT22;8977;50.902;4.314;2022-07-10T03:47:01;19.60;99.90
17715;DHT22;8977;50.902;4.314;2022-07-10T03:49:28;19.60;99.90
17715;DHT22;8977;50.902;4.314;2022-07-10T03:51:59;19.70;99.90
17715;DHT22;8977;50.902;4.314;2022-07-10T03:54:28;19.70;99.90
17715;DHT22;8977;50.902;4.314;2022-07-10T03:56:54;19.60;99.90
17715;DHT22;8977;50.902;4.314;2022-07-10T03:59:39;19.60;99.90
17715;DHT22;8977;50.902;4.314;2022-07-10T04:02:06;19.60;99.90
17715;DHT22;8977;50.902;4.314;2022-07-10T04:04:33;19.60;99.90
17715;DHT22;8977;50.902;4.314;2022-07-10T04:07:00;19.60;99.90
17715;DHT22;8977;50.902;4.314;2022-07-10T04:09:28;19.60;99.90
17715;DHT22;8977;50.902;4.314;2022-07-10T04:11:55;19.60;99.90
17715;DHT22;8977;50.902;4.314;2022-07-10T04:14:22;19.60;99.90
17715;DHT22;8977;50.902;4.314;2022-07-10T04:16:49;19.60;99.90
17715;DHT22;8977;50.902;4.314;2022-07-10T04:19:16;19.60;99.90
17715;DHT22;8977;50.902;4.314;2022-07-10T04:21:43;19.60;99.90
17715;DHT22;8977;50.902;4.314;2022-07-10T04:24:10;19.60;99.90
17715;DHT22;8977;50.902;4.314;2022-07-10T04:26:38;19.60;99.90
17715;DHT22;8977;50.902;4.314;2022-07-10T04:29:05;19.60;99.90
17715;DHT22;8977;50.902;4.314;2022-07-10T04:31:32;19.60;99.90
17715;DHT22;8977;50.902;4.314;2022-07-10T04:33:59;19.60;99.90
17715;DHT22;8977;50.902;4.314;2022-07-10T04:36:26;19.60;99.90
17715;DHT22;8977;50.902;4.314;2022-07-10T04:38:53;19.60;99.90
17715;DHT22;8977;50.902;4.314;2022-07-10T04:41:20;19.60;99.90
17715;DHT22;8977;50.902;4.314;2022-07-10T04:43:48;19.60;99.90
17715;DHT22;8977;50.902;4.314;2022-07-10T04:46:15;19.60;99.90
17715;DHT22;8977;50.902;4.314;2022-07-10T04:48:41;19.60;99.90
17715;DHT22;8977;50.902;4.314;2022-07-10T04:51:08;19.60;99.90
17715;DHT22;8977;50.902;4.314;2022-07-10T04:53:35;19.60;99.90
17715;DHT22;8977;50.902;4.314;2022-07-10T04:56:02;19.60;99.90
17715;DHT22;8977;50.902;4.314;2022-07-10T04:58:29;19.60;99.90
17715;DHT22;8977;50.902;4.314;2022-07-10T05:00:57;19.60;99.90
17715;DHT22;8977;50.902;4.314;2022-07-10T05:03:24;19.60;99.90
17715;DHT22;8977;50.902;4.314;2022-07-10T05:05:51;19.60;99.90
17715;DHT22;8977;50.902;4.314;2022-07-10T05:08:18;19.60;99.90
17715;DHT22;8977;50.902;4.314;2022-07-10T05:10:45;19.60;99.90
17715;DHT22;8977;50.902;4.314;2022-07-10T05:13:12;19.70;99.90
17715;DHT22;8977;50.902;4.314;2022-07-10T05:15:38;19.70;99.90
17715;DHT22;8977;50.902;4.314;2022-07-10T05:18:07;19.70;99.90
17715;DHT22;8977;50.902;4.314;2022-07-10T05:20:34;19.70;99.90
17715;DHT22;8977;50.902;4.314;2022-07-10T05:23:03;19.70;99.90
17715;DHT22;8977;50.902;4.314;2022-07-10T05:25:30;19.80;99.90
17715;DHT22;8977;50.902;4.314;2022-07-10T05:27:58;19.80;99.90
17715;DHT22;8977;50.902;4.314;2022-07-10T05:30:25;19.80;99.90
17715;DHT22;8977;50.902;4.314;2022-07-10T05:32:51;19.90;99.90
17715;DHT22;8977;50.902;4.314;2022-07-10T05:35:20;19.90;99.90
17715;DHT22;8977;50.902;4.314;2022-07-10T05:37:46;19.90;99.90
17715;DHT22;8977;50.902;4.314;2022-07-10T05:40:13;19.90;99.90
17715;DHT22;8977;50.902;4.314;2022-07-10T05:42:40;19.90;99.90
17715;DHT22;8977;50.902;4.314;2022-07-10T05:45:08;19.90;99.90
17715;DHT22;8977;50.902;4.314;2022-07-10T05:47:35;20.00;99.90
17715;DHT22;8977;50.902;4.314;2022-07-10T05:50:02;20.00;99.90
17715;DHT22;8977;50.902;4.314;2022-07-10T05:52:30;20.00;99.90
17715;DHT22;8977;50.902;4.314;2022-07-10T05:54:57;20.10;99.90
17715;DHT22;8977;50.902;4.314;2022-07-10T05:57:25;20.10;99.90
17715;DHT22;8977;50.902;4.314;2022-07-10T05:59:52;20.10;99.90
17715;DHT22;8977;50.902;4.314;2022-07-10T06:02:19;20.10;99.90
17715;DHT22;8977;50.902;4.314;2022-07-10T06:04:46;20.20;99.90
17715;DHT22;8977;50.902;4.314;2022-07-10T06:07:13;20.20;99.90
17715;DHT22;8977;50.902;4.314;2022-07-10T06:09:41;20.30;99.90
17715;DHT22;8977;50.902;4.314;2022-07-10T06:12:08;20.30;99.90
17715;DHT22;8977;50.902;4.314;2022-07-10T06:14:35;20.30;99.90
17715;DHT22;8977;50.902;4.314;2022-07-10T06:17:02;20.30;99.90
17715;DHT22;8977;50.902;4.314;2022-07-10T06:19:30;20.30;99.90
17715;DHT22;8977;50.902;4.314;2022-07-10T06:21:56;20.40;99.90
17715;DHT22;8977;50.902;4.314;2022-07-10T06:24:42;20.40;99.90
17715;DHT22;8977;50.902;4.314;2022-07-10T06:27:09;20.40;99.90
17715;DHT22;8977;50.902;4.314;2022-07-10T06:29:36;20.40;99.90
17715;DHT22;8977;50.902;4.314;2022-07-10T06:32:04;20.40;99.90
17715;DHT22;8977;50.902;4.314;2022-07-10T06:34:31;20.40;99.90
17715;DHT22;8977;50.902;4.314;2022-07-10T06:36:58;20.40;99.90
17715;DHT22;8977;50.902;4.314;2022-07-10T06:39:25;20.50;99.90
17715;DHT22;8977;50.902;4.314;2022-07-10T06:41:53;20.50;99.90
17715;DHT22;8977;50.902;4.314;2022-07-10T06:44:20;20.60;99.90
17715;DHT22;8977;50.902;4.314;2022-07-10T06:46:47;20.60;99.90
17715;DHT22;8977;50.902;4.314;2022-07-10T06:49:34;20.60;99.90
17715;DHT22;8977;50.902;4.314;2022-07-10T06:52:00;20.70;99.90
17715;DHT22;8977;50.902;4.314;2022-07-10T06:54:27;20.70;99.90
17715;DHT22;8977;50.902;4.314;2022-07-10T06:56:55;20.60;99.90
17715;DHT22;8977;50.902;4.314;2022-07-10T06:59:23;20.70;99.90
17715;DHT22;8977;50.902;4.314;2022-07-10T07:01:50;20.60;99.90
17715;DHT22;8977;50.902;4.314;2022-07-10T07:04:17;20.70;99.90
17715;DHT22;8977;50.902;4.314;2022-07-10T07:06:43;20.70;99.90
17715;DHT22;8977;50.902;4.314;2022-07-10T07:09:11;20.70;99.90
17715;DHT22;8977;50.902;4.314;2022-07-10T07:11:37;20.70;99.90
17715;DHT22;8977;50.902;4.314;2022-07-10T07:14:06;20.70;99.90
17715;DHT22;8977;50.902;4.314;2022-07-10T07:16:33;20.80;99.90
17715;DHT22;8977;50.902;4.314;2022-07-10T07:19:08;20.80;99.90
17715;DHT22;8977;50.902;4.314;2022-07-10T07:21:35;20.80;99.90
17715;DHT22;8977;50.902;4.314;2022-07-10T07:24:19;20.90;99.90
17715;DHT22;8977;50.902;4.314;2022-07-10T07:26:47;20.80;99.90
17715;DHT22;8977;50.902;4.314;2022-07-10T07:29:16;20.90;99.90
17715;DHT22;8977;50.902;4.314;2022-07-10T07:31:43;20.90;99.90
17715;DHT22;8977;50.902;4.314;2022-07-10T07:34:11;20.90;99.90
17715;DHT22;8977;50.902;4.314;2022-07-10T07:36:38;20.90;99.90
17715;DHT22;8977;50.902;4.314;2022-07-10T07:39:05;20.90;99.90
17715;DHT22;8977;50.902;4.314;2022-07-10T07:41:31;20.90;99.90
17715;DHT22;8977;50.902;4.314;2022-07-10T07:43:58;21.00;99.90
17715;DHT22;8977;50.902;4.314;2022-07-10T07:46:27;21.10;99.90
17715;DHT22;8977;50.902;4.314;2022-07-10T07:48:53;21.10;99.90
17715;DHT22;8977;50.902;4.314;2022-07-10T07:51:20;21.10;99.90
17715;DHT22;8977;50.902;4.314;2022-07-10T07:53:47;21.10;99.90
17715;DHT22;8977;50.902;4.314;2022-07-10T07:56:14;21.10;99.90
17715;DHT22;8977;50.902;4.314;2022-07-10T07:58:41;21.10;99.90
17715;DHT22;8977;50.902;4.314;2022-07-10T08:01:08;21.20;99.90
17715;DHT22;8977;50.902;4.314;2022-07-10T08:03:37;21.20;99.90
17715;DHT22;8977;50.902;4.314;2022-07-10T08:06:04;21.20;99.90
17715;DHT22;8977;50.902;4.314;2022-07-10T08:08:31;21.20;99.90
17715;DHT22;8977;50.902;4.314;2022-07-10T08:10:58;21.20;99.90
17715;DHT22;8977;50.902;4.314;2022-07-10T08:13:25;21.30;99.90
17715;DHT22;8977;50.902;4.314;2022-07-10T08:15:53;21.30;99.90
17715;DHT22;8977;50.902;4.314;2022-07-10T08:18:20;21.20;99.90
17715;DHT22;8977;50.902;4.314;2022-07-10T08:20:48;21.30;99.90
17715;DHT22;8977;50.902;4.314;2022-07-10T08:23:15;21.40;99.90
17715;DHT22;8977;50.902;4.314;2022-07-10T08:25:42;21.40;99.90
17715;DHT22;8977;50.902;4.314;2022-07-10T08:28:09;21.40;99.90
17715;DHT22;8977;50.902;4.314;2022-07-10T08:30:37;21.30;99.90
17715;DHT22;8977;50.902;4.314;2022-07-10T08:33:04;21.30;99.90
17715;DHT22;8977;50.902;4.314;2022-07-10T08:35:31;21.40;99.90
17715;DHT22;8977;50.902;4.314;2022-07-10T08:37:59;21.50;99.90
17715;DHT22;8977;50.902;4.314;2022-07-10T08:40:34;21.50;99.90
17715;DHT22;8977;50.902;4.314;2022-07-10T08:43:01;21.50;99.90
17715;DHT22;8977;50.902;4.314;2022-07-10T08:45:31;21.60;99.90
17715;DHT22;8977;50.902;4.314;2022-07-10T08:48:01;21.60;99.90
17715;DHT22;8977;50.902;4.314;2022-07-10T08:50:29;21.60;99.90
17715;DHT22;8977;50.902;4.314;2022-07-10T08:53:03;21.60;99.90
17715;DHT22;8977;50.902;4.314;2022-07-10T08:55:31;21.70;99.90
17715;DHT22;8977;50.902;4.314;2022-07-10T08:57:58;21.80;99.90
17715;DHT22;8977;50.902;4.314;2022-07-10T09:00:26;21.80;99.90
17715;DHT22;8977;50.902;4.314;2022-07-10T09:02:53;21.70;99.90
17715;DHT22;8977;50.902;4.314;2022-07-10T09:05:22;21.70;99.90
17715;DHT22;8977;50.902;4.314;2022-07-10T09:07:49;21.70;99.90
17715;DHT22;8977;50.902;4.314;2022-07-10T09:10:20;21.70;99.90
17715;DHT22;8977;50.902;4.314;2022-07-10T09:12:51;21.70;99.90
17715;DHT22;8977;50.902;4.314;2022-07-10T09:15:20;21.70;99.90
17715;DHT22;8977;50.902;4.314;2022-07-10T09:17:54;21.70;99.90
17715;DHT22;8977;50.902;4.314;2022-07-10T09:20:29;21.80;99.90
17715;DHT22;8977;50.902;4.314;2022-07-10T09:22:57;21.80;99.90
17715;DHT22;8977;50.902;4.314;2022-07-10T09:25:34;21.90;99.90
17715;DHT22;8977;50.902;4.314;2022-07-10T09:28:01;21.90;99.90
17715;DHT22;8977;50.902;4.314;2022-07-10T09:30:33;22.00;99.90
17715;DHT22;8977;50.902;4.314;2022-07-10T09:33:20;22.10;99.90
17715;DHT22;8977;50.902;4.314;2022-07-10T09:36:05;22.20;99.90
17715;DHT22;8977;50.902;4.314;2022-07-10T09:38:54;22.20;99.90
17715;DHT22;8977;50.902;4.314;2022-07-10T09:41:29;22.30;99.90
17715;DHT22;8977;50.902;4.314;2022-07-10T09:43:57;22.30;99.90
17715;DHT22;8977;50.902;4.314;2022-07-10T09:46:26;22.30;99.90
17715;DHT22;8977;50.902;4.314;2022-07-10T09:49:05;22.30;99.90
17715;DHT22;8977;50.902;4.314;2022-07-10T09:51:33;22.40;99.90
17715;DHT22;8977;50.902;4.314;2022-07-10T09:54:02;22.40;99.90
17715;DHT22;8977;50.902;4.314;2022-07-10T09:56:44;22.40;99.90
17715;DHT22;8977;50.902;4.314;2022-07-10T09:59:13;22.50;99.90
17715;DHT22;8977;50.902;4.314;2022-07-10T10:01:43;22.40;99.90
17715;DHT22;8977;50.902;4.314;2022-07-10T10:04:12;22.40;99.90
17715;DHT22;8977;50.902;4.314;2022-07-10T10:06:40;22.40;99.90
17715;DHT22;8977;50.902;4.314;2022-07-10T10:09:11;22.40;99.90
17715;DHT22;8977;50.902;4.314;2022-07-10T10:11:43;22.50;99.90
17715;DHT22;8977;50.902;4.314;2022-07-10T10:14:11;22.50;99.90
17715;DHT22;8977;50.902;4.314;2022-07-10T10:16:39;22.60;99.90
17715;DHT22;8977;50.902;4.314;2022-07-10T10:19:10;22.70;99.90
17715;DHT22;8977;50.902;4.314;2022-07-10T10:21:56;22.70;99.90
17715;DHT22;8977;50.902;4.314;2022-07-10T10:24:25;22.80;99.90
17715;DHT22;8977;50.902;4.314;2022-07-10T10:26:53;22.90;99.80
17715;DHT22;8977;50.902;4.314;2022-07-10T10:29:20;22.90;99.80
17715;DHT22;8977;50.902;4.314;2022-07-10T10:31:48;22.90;99.90
17715;DHT22;8977;50.902;4.314;2022-07-10T10:34:39;23.00;99.60
17715;DHT22;8977;50.902;4.314;2022-07-10T10:37:35;23.00;99.90
17715;DHT22;8977;50.902;4.314;2022-07-10T10:40:09;23.00;99.90
17715;DHT22;8977;50.902;4.314;2022-07-10T10:42:37;22.90;99.90
17715;DHT22;8977;50.902;4.314;2022-07-10T10:45:32;22.90;99.90
17715;DHT22;8977;50.902;4.314;2022-07-10T10:48:02;23.00;99.90
17715;DHT22;8977;50.902;4.314;2022-07-10T10:50:40;22.90;99.90
17715;DHT22;8977;50.902;4.314;2022-07-10T10:53:16;22.90;99.90
17715;DHT22;8977;50.902;4.314;2022-07-10T10:58:47;22.90;99.90
17715;DHT22;8977;50.902;4.314;2022-07-10T11:01:25;23.00;99.90
17715;DHT22;8977;50.902;4.314;2022-07-10T11:04:13;23.00;99.50
17715;DHT22;8977;50.902;4.314;2022-07-10T11:06:42;23.00;99.90
17715;DHT22;8977;50.902;4.314;2022-07-10T11:09:23;23.00;99.90
17715;DHT22;8977;50.902;4.314;2022-07-10T11:12:01;23.00;99.90
17715;DHT22;8977;50.902;4.314;2022-07-10T11:14:29;23.10;99.90
17715;DHT22;8977;50.902;4.314;2022-07-10T11:16:57;23.10;99.90
17715;DHT22;8977;50.902;4.314;2022-07-10T11:19:25;23.10;99.90
17715;DHT22;8977;50.902;4.314;2022-07-10T11:22:03;23.10;99.90
17715;DHT22;8977;50.902;4.314;2022-07-10T11:24:45;23.10;99.90
17715;DHT22;8977;50.902;4.314;2022-07-10T11:27:50;23.20;99.90
17715;DHT22;8977;50.902;4.314;2022-07-10T11:30:19;23.20;99.90
17715;DHT22;8977;50.902;4.314;2022-07-10T11:32:45;23.20;99.90
17715;DHT22;8977;50.902;4.314;2022-07-10T11:35:14;23.20;99.80
17715;DHT22;8977;50.902;4.314;2022-07-10T11:37:49;23.40;99.00
17715;DHT22;8977;50.902;4.314;2022-07-10T11:40:19;23.40;99.10
17715;DHT22;8977;50.902;4.314;2022-07-10T11:42:50;23.30;99.20
17715;DHT22;8977;50.902;4.314;2022-07-10T11:45:25;23.30;99.60
17715;DHT22;8977;50.902;4.314;2022-07-10T11:47:52;23.30;99.70
17715;DHT22;8977;50.902;4.314;2022-07-10T11:50:19;23.40;99.70
17715;DHT22;8977;50.902;4.314;2022-07-10T11:52:46;23.50;99.40
17715;DHT22;8977;50.902;4.314;2022-07-10T11:55:14;23.50;98.90
17715;DHT22;8977;50.902;4.314;2022-07-10T11:57:43;23.50;98.90
17715;DHT22;8977;50.902;4.314;2022-07-10T12:00:21;23.50;99.40
17715;DHT22;8977;50.902;4.314;2022-07-10T12:02:49;23.40;99.10
17715;DHT22;8977;50.902;4.314;2022-07-10T12:05:32;23.40;99.30
17715;DHT22;8977;50.902;4.314;2022-07-10T12:08:00;23.50;99.60
17715;DHT22;8977;50.902;4.314;2022-07-10T12:10:27;23.50;99.50
17715;DHT22;8977;50.902;4.314;2022-07-10T12:13:03;23.70;98.90
17715;DHT22;8977;50.902;4.314;2022-07-10T12:15:31;23.60;99.00
17715;DHT22;8977;50.902;4.314;2022-07-10T12:17:58;23.60;98.80
17715;DHT22;8977;50.902;4.314;2022-07-10T12:20:25;23.60;99.30
17715;DHT22;8977;50.902;4.314;2022-07-10T12:22:53;23.70;99.00
17715;DHT22;8977;50.902;4.314;2022-07-10T12:25:21;23.70;98.60
17715;DHT22;8977;50.902;4.314;2022-07-10T12:27:48;23.60;98.90
17715;DHT22;8977;50.902;4.314;2022-07-10T12:30:16;23.70;98.60
17715;DHT22;8977;50.902;4.314;2022-07-10T12:32:43;23.60;98.70
17715;DHT22;8977;50.902;4.314;2022-07-10T12:35:11;23.70;98.80
17715;DHT22;8977;50.902;4.314;2022-07-10T12:37:47;23.70;98.80
17715;DHT22;8977;50.902;4.314;2022-07-10T12:40:29;23.70;99.20
17715;DHT22;8977;50.902;4.314;2022-07-10T12:43:01;23.80;99.50
17715;DHT22;8977;50.902;4.314;2022-07-10T12:45:29;23.80;99.50
17715;DHT22;8977;50.902;4.314;2022-07-10T12:47:57;23.90;99.40
17715;DHT22;8977;50.902;4.314;2022-07-10T12:50:25;24.00;99.20
17715;DHT22;8977;50.902;4.314;2022-07-10T12:53:07;24.10;98.50
17715;DHT22;8977;50.902;4.314;2022-07-10T12:55:35;24.10;98.80
17715;DHT22;8977;50.902;4.314;2022-07-10T12:58:06;24.20;98.70
17715;DHT22;8977;50.902;4.314;2022-07-10T13:00:36;24.20;98.50
17715;DHT22;8977;50.902;4.314;2022-07-10T13:03:10;24.10;98.40
17715;DHT22;8977;50.902;4.314;2022-07-10T13:05:41;24.20;98.70
17715;DHT22;8977;50.902;4.314;2022-07-10T13:08:10;24.20;98.80
17715;DHT22;8977;50.902;4.314;2022-07-10T13:10:39;24.20;99.00
17715;DHT22;8977;50.902;4.314;2022-07-10T13:13:07;24.30;99.10
17715;DHT22;8977;50.902;4.314;2022-07-10T13:15:35;24.30;98.90
17715;DHT22;8977;50.902;4.314;2022-07-10T13:18:06;24.40;98.60
17715;DHT22;8977;50.902;4.314;2022-07-10T13:20:33;24.40;98.50
17715;DHT22;8977;50.902;4.314;2022-07-10T13:23:00;24.60;98.70
17715;DHT22;8977;50.902;4.314;2022-07-10T13:25:27;24.70;98.60
17715;DHT22;8977;50.902;4.314;2022-07-10T13:27:54;24.70;98.50
17715;DHT22;8977;50.902;4.314;2022-07-10T13:30:21;24.80;98.40
17715;DHT22;8977;50.902;4.314;2022-07-10T13:32:49;24.80;98.30
17715;DHT22;8977;50.902;4.314;2022-07-10T13:35:16;24.80;98.10
17715;DHT22;8977;50.902;4.314;2022-07-10T13:37:43;24.80;97.70
17715;DHT22;8977;50.902;4.314;2022-07-10T13:40:11;24.70;97.90
17715;DHT22;8977;50.902;4.314;2022-07-10T13:42:38;24.80;97.80
17715;DHT22;8977;50.902;4.314;2022-07-10T13:45:06;24.80;98.00
17715;DHT22;8977;50.902;4.314;2022-07-10T13:47:34;24.90;97.30
17715;DHT22;8977;50.902;4.314;2022-07-10T13:50:03;24.90;97.50
17715;DHT22;8977;50.902;4.314;2022-07-10T13:52:30;24.90;98.00
17715;DHT22;8977;50.902;4.314;2022-07-10T13:54:57;24.80;98.10
17715;DHT22;8977;50.902;4.314;2022-07-10T13:57:24;24.90;98.20
17715;DHT22;8977;50.902;4.314;2022-07-10T13:59:52;24.90;98.00
17715;DHT22;8977;50.902;4.314;2022-07-10T14:02:19;24.90;97.90
17715;DHT22;8977;50.902;4.314;2022-07-10T14:04:46;24.80;98.00
17715;DHT22;8977;50.902;4.314;2022-07-10T14:07:14;24.80;97.90
17715;DHT22;8977;50.902;4.314;2022-07-10T14:09:41;24.80;97.70
17715;DHT22;8977;50.902;4.314;2022-07-10T14:12:08;24.80;97.50
17715;DHT22;8977;50.902;4.314;2022-07-10T14:14:35;24.80;97.50
17715;DHT22;8977;50.902;4.314;2022-07-10T14:17:03;24.80;97.40
17715;DHT22;8977;50.902;4.314;2022-07-10T14:19:30;24.80;97.60
17715;DHT22;8977;50.902;4.314;2022-07-10T14:21:57;24.70;97.70
17715;DHT22;8977;50.902;4.314;2022-07-10T14:24:26;24.70;97.90
17715;DHT22;8977;50.902;4.314;2022-07-10T14:26:53;24.70;98.00
17715;DHT22;8977;50.902;4.314;2022-07-10T14:29:20;24.70;98.00
17715;DHT22;8977;50.902;4.314;2022-07-10T14:31:47;24.80;98.50
17715;DHT22;8977;50.902;4.314;2022-07-10T14:34:14;24.80;98.30
17715;DHT22;8977;50.902;4.314;2022-07-10T14:36:42;24.80;98.10
17715;DHT22;8977;50.902;4.314;2022-07-10T14:39:09;24.80;98.00
17715;DHT22;8977;50.902;4.314;2022-07-10T14:41:39;24.80;98.20
17715;DHT22;8977;50.902;4.314;2022-07-10T14:44:06;24.80;98.30
17715;DHT22;8977;50.902;4.314;2022-07-10T14:46:33;24.80;98.40
17715;DHT22;8977;50.902;4.314;2022-07-10T14:49:00;24.80;98.40
17715;DHT22;8977;50.902;4.314;2022-07-10T14:51:27;24.90;98.20
17715;DHT22;8977;50.902;4.314;2022-07-10T14:53:54;24.90;98.10
17715;DHT22;8977;50.902;4.314;2022-07-10T14:56:22;24.80;98.00
17715;DHT22;8977;50.902;4.314;2022-07-10T14:58:51;24.90;98.00
17715;DHT22;8977;50.902;4.314;2022-07-10T15:01:18;24.90;97.80
17715;DHT22;8977;50.902;4.314;2022-07-10T15:03:45;24.90;97.70
17715;DHT22;8977;50.902;4.314;2022-07-10T15:06:12;25.00;97.40
17715;DHT22;8977;50.902;4.314;2022-07-10T15:08:38;25.00;97.20
17715;DHT22;8977;50.902;4.314;2022-07-10T15:11:05;25.10;97.30
17715;DHT22;8977;50.902;4.314;2022-07-10T15:13:33;25.20;97.20
17715;DHT22;8977;50.902;4.314;2022-07-10T15:16:01;25.20;97.40
17715;DHT22;8977;50.902;4.314;2022-07-10T15:18:28;25.30;97.00
17715;DHT22;8977;50.902;4.314;2022-07-10T15:20:55;25.30;97.20
17715;DHT22;8977;50.902;4.314;2022-07-10T15:23:24;25.30;96.70
17715;DHT22;8977;50.902;4.314;2022-07-10T15:25:51;25.40;96.70
17715;DHT22;8977;50.902;4.314;2022-07-10T15:28:18;25.40;96.70
17715;DHT22;8977;50.902;4.314;2022-07-10T15:30:44;25.50;97.00
17715;DHT22;8977;50.902;4.314;2022-07-10T15:33:13;25.40;97.10
17715;DHT22;8977;50.902;4.314;2022-07-10T15:35:39;25.40;97.10
17715;DHT22;8977;50.902;4.314;2022-07-10T15:38:06;25.40;97.30
17715;DHT22;8977;50.902;4.314;2022-07-10T15:40:33;25.30;97.50
17715;DHT22;8977;50.902;4.314;2022-07-10T15:43:01;25.40;97.50
17715;DHT22;8977;50.902;4.314;2022-07-10T15:45:28;25.40;97.50
17715;DHT22;8977;50.902;4.314;2022-07-10T15:47:55;25.50;97.60
17715;DHT22;8977;50.902;4.314;2022-07-10T15:50:23;25.40;97.60
17715;DHT22;8977;50.902;4.314;2022-07-10T15:52:50;25.50;97.30
17715;DHT22;8977;50.902;4.314;2022-07-10T15:55:17;25.40;97.00
17715;DHT22;8977;50.902;4.314;2022-07-10T15:57:44;25.40;96.90